Pagrindinis puslapis
METAR-TAF:

METAR-TAF

Oro uostai :

Ankara-Güvercinlik, Turkija

platuma: 39-56N, ilguma: 032-45E, Aukštis: 819 m

METAR: trūkstamas

Laikas: 09:38 (06:38 UTC)

Prognozė

Ataskaita buvo paskelbta 1 valandą ir 58 minutes, ne 04:40 UTC
Prognozė galioja nuo 14 metu 06 UTC su 14 metu 15 UTC
Vėjas 2 kt nuo kintamojo kryptimis
Matomumas 10 km arba daugiau
nėra debesų žemiau 1500 m ir nėra kamuolinių lietaus debesų
Tapsmas
nuo 14 metu 06 UTC su 14 metu 09 UTC
Vėjas 12 kt iš Vakarų/Pietvakarių

TAF: LTAB 140440Z 1406/1415 VRB02KT CAVOK BECMG 1406/1409 24012KT

Orai ataskaitas ir orų prognozės (METAR, TAF).

turimą stotys yra geltonos ir raudonos taškus žemėlapyje.

Perkelti pele per norėdami pamatyti stoties vardą.

Tada spustelėkite, norėdami matyti oro stebėjimo ir prognozės.

Norėdami pakeisti žemėlapį: spustelėkite ant žalios mygtukų su juodo kryžiaus žemyn,; žalią mygtuką su brūkšneliu, jei norite nutolinti; arba žalių rodyklių gretimoms žemėlapius.


METAR-TAF: